Time;durP1;ratioP1;P1;durP2;ratioP2;P2;SDS_P1;SDS_P2;PMS_P1;PMS_P2;Temp;Humidity;BMP_temperature;BMP_pressure;BME280_temperature;BME280_humidity;BME280_pressure;Samples;Min_cycle;Max_cycle;Signal;HPM_P1;HPM_P2
2024/01/18 00:00:35;;;;;;;0.77;0.77;;;8.80;99.90;;;;;;5044150;28;20659;-57
2024/01/18 00:03:01;;;;;;;0.98;0.63;;;8.80;99.90;;;;;;5045267;28;20435;-52
2024/01/18 00:05:27;;;;;;;0.70;0.70;;;8.80;99.90;;;;;;5064920;28;20184;-56
2024/01/18 00:07:52;;;;;;;0.70;0.70;;;8.90;99.90;;;;;;5064508;28;20182;-57
2024/01/18 00:10:26;;;;;;;4.20;1.00;;;8.70;99.90;;;;;;5060885;28;20593;-58
2024/01/18 00:12:52;;;;;;;1.10;1.02;;;8.70;99.90;;;;;;5059647;28;20757;-57
2024/01/18 00:15:18;;;;;;;1.00;1.00;;;8.50;99.90;;;;;;5065117;28;20568;-58
2024/01/18 00:17:44;;;;;;;0.60;0.60;;;8.50;99.90;;;;;;5072221;28;20284;-56
2024/01/18 00:20:11;;;;;;;1.07;1.00;;;8.50;99.90;;;;;;5061833;28;20244;-56
2024/01/18 00:22:37;;;;;;;0.80;0.80;;;8.60;99.90;;;;;;5061422;28;20224;-56
2024/01/18 00:25:03;;;;;;;0.70;0.70;;;8.70;99.90;;;;;;5060891;28;20181;-58
2024/01/18 00:27:29;;;;;;;2.67;0.85;;;8.70;99.90;;;;;;5045541;28;20177;-57
2024/01/18 00:29:54;;;;;;;0.93;0.80;;;8.80;99.90;;;;;;5061502;28;20174;-58
2024/01/18 00:32:22;;;;;;;1.23;1.13;;;8.80;99.90;;;;;;5046132;28;20269;-56
2024/01/18 00:34:47;;;;;;;0.50;0.50;;;8.80;99.90;;;;;;5072575;28;20219;-57
2024/01/18 00:37:14;;;;;;;1.70;0.73;;;8.80;99.90;;;;;;5072479;28;20197;-56
2024/01/18 00:39:41;;;;;;;1.40;0.63;;;8.70;99.90;;;;;;5072789;28;20177;-55
2024/01/18 00:42:07;;;;;;;0.63;0.63;;;8.60;99.90;;;;;;5072328;28;20174;-57
2024/01/18 00:44:33;;;;;;;1.27;0.73;;;8.60;99.90;;;;;;5072426;28;20593;-56
2024/01/18 00:46:58;;;;;;;0.90;0.70;;;8.40;99.90;;;;;;5072514;28;20556;-55
2024/01/18 00:49:24;;;;;;;0.70;0.70;;;8.50;99.90;;;;;;5072370;28;20177;-57
2024/01/18 00:51:50;;;;;;;2.10;0.70;;;8.60;99.90;;;;;;5072051;28;20255;-57
2024/01/18 00:54:16;;;;;;;0.80;0.80;;;8.70;99.90;;;;;;5072190;28;20667;-57
2024/01/18 00:56:41;;;;;;;1.30;0.60;;;8.80;99.90;;;;;;5071936;28;20208;-54
2024/01/18 00:59:08;;;;;;;0.63;0.63;;;8.80;99.90;;;;;;5072131;28;20188;-57
2024/01/18 01:01:33;;;;;;;2.47;0.73;;;8.90;99.90;;;;;;5071640;28;20169;-56
2024/01/18 01:03:59;;;;;;;1.07;0.60;;;8.90;99.90;;;;;;5071963;28;20219;-57
2024/01/18 01:06:28;;;;;;;1.03;0.77;;;8.90;99.90;;;;;;5072127;28;20544;-57
2024/01/18 01:08:53;;;;;;;1.00;0.93;;;8.80;99.90;;;;;;5072097;28;20445;-55
2024/01/18 01:11:19;;;;;;;0.63;0.63;;;8.70;99.90;;;;;;5071789;28;20543;-56
2024/01/18 01:13:45;;;;;;;3.33;1.08;;;8.70;99.90;;;;;;5071080;28;20197;-57
2024/01/18 01:16:11;;;;;;;1.20;1.10;;;8.80;99.90;;;;;;5071880;28;20201;-57
2024/01/18 01:18:37;;;;;;;0.80;0.80;;;8.80;99.90;;;;;;5071799;28;20235;-56
2024/01/18 01:21:03;;;;;;;0.60;0.60;;;8.80;99.90;;;;;;5071721;28;20543;-55
2024/01/18 01:23:29;;;;;;;0.60;0.60;;;8.80;99.90;;;;;;5071630;28;20518;-55
2024/01/18 01:25:56;;;;;;;0.80;0.80;;;8.80;99.90;;;;;;5071831;28;20319;-57
2024/01/18 01:28:22;;;;;;;1.15;0.85;;;8.80;99.90;;;;;;5053785;28;20177;-54
2024/01/18 01:30:48;;;;;;;2.30;0.93;;;8.90;99.90;;;;;;5071496;28;20166;-58
2024/01/18 01:33:14;;;;;;;1.02;0.73;;;8.90;99.90;;;;;;5087283;28;20202;-55
2024/01/18 01:35:40;;;;;;;0.80;0.80;;;8.90;99.90;;;;;;5091920;28;20168;-55
2024/01/18 01:38:06;;;;;;;0.70;0.70;;;8.90;99.90;;;;;;5092139;28;20204;-57
2024/01/18 01:40:31;;;;;;;2.50;0.93;;;8.90;99.90;;;;;;5091692;28;20165;-58
2024/01/18 01:42:57;;;;;;;0.90;0.90;;;8.80;99.90;;;;;;5091585;28;20208;-57
2024/01/18 01:45:23;;;;;;;0.70;0.70;;;8.70;99.90;;;;;;5091906;28;20168;-57
2024/01/18 01:47:49;;;;;;;0.63;0.60;;;8.80;99.90;;;;;;5091688;28;20169;-55
2024/01/18 01:50:15;;;;;;;0.95;0.80;;;8.80;99.90;;;;;;5091570;28;20177;-57
2024/01/18 01:52:42;;;;;;;0.77;0.77;;;8.70;99.90;;;;;;5091723;28;20181;-54
2024/01/18 01:55:08;;;;;;;1.00;0.90;;;8.70;99.90;;;;;;5091664;28;20179;-57
2024/01/18 01:57:35;;;;;;;1.13;1.02;;;8.50;99.90;;;;;;5091567;28;20208;-57
2024/01/18 02:00:02;;;;;;;0.50;0.50;;;8.60;99.90;;;;;;5091640;28;20179;-57
2024/01/18 02:02:27;;;;;;;0.60;0.60;;;8.70;99.90;;;;;;5091296;28;20194;-57
2024/01/18 02:04:54;;;;;;;1.13;0.87;;;8.70;99.90;;;;;;5091728;28;20229;-57
2024/01/18 02:07:21;;;;;;;0.85;0.70;;;8.70;99.90;;;;;;5091743;28;20169;-55
2024/01/18 02:09:47;;;;;;;0.82;0.82;;;8.50;99.90;;;;;;5091688;28;20187;-58
2024/01/18 02:12:14;;;;;;;1.33;0.83;;;8.50;99.90;;;;;;5091490;28;20259;-56
2024/01/18 02:14:40;;;;;;;0.90;0.90;;;8.60;99.90;;;;;;5091522;28;20422;-58
2024/01/18 02:17:06;;;;;;;0.90;0.73;;;8.60;99.90;;;;;;5091354;28;20211;-54
2024/01/18 02:19:32;;;;;;;0.83;0.70;;;8.60;99.90;;;;;;5091884;28;20177;-57
2024/01/18 02:22:02;;;;;;;1.00;0.90;;;8.60;99.90;;;;;;5091377;28;20920;-56
2024/01/18 02:24:34;;;;;;;1.33;0.98;;;8.70;99.90;;;;;;5091595;28;20224;-53
2024/01/18 02:26:59;;;;;;;1.35;1.10;;;8.70;99.90;;;;;;5095684;28;20172;-57
2024/01/18 02:29:25;;;;;;;1.03;1.00;;;8.70;99.90;;;;;;5095486;28;20278;-56
2024/01/18 02:31:51;;;;;;;0.87;0.87;;;8.70;99.90;;;;;;5095114;28;20172;-57
2024/01/18 02:34:18;;;;;;;1.07;0.80;;;8.70;99.90;;;;;;5095385;28;20192;-58
2024/01/18 02:36:44;;;;;;;1.40;1.30;;;8.60;99.90;;;;;;5095333;28;20322;-57
2024/01/18 02:39:10;;;;;;;0.88;0.88;;;8.40;99.90;;;;;;5095122;28;20177;-56
2024/01/18 02:41:36;;;;;;;0.65;0.65;;;8.40;99.90;;;;;;5094508;28;20165;-57
2024/01/18 02:44:02;;;;;;;1.40;0.83;;;8.40;99.90;;;;;;5094945;28;20211;-57
2024/01/18 02:46:34;;;;;;;1.23;0.90;;;8.40;99.90;;;;;;5095409;28;20912;-58
2024/01/18 02:49:00;;;;;;;0.70;0.70;;;8.30;99.90;;;;;;5095297;28;20809;-55
2024/01/18 02:51:26;;;;;;;0.60;0.60;;;8.40;99.90;;;;;;5094845;28;20207;-55
2024/01/18 02:53:52;;;;;;;0.50;0.50;;;8.50;99.90;;;;;;5095032;28;20189;-57
2024/01/18 02:56:18;;;;;;;1.07;0.63;;;8.50;99.90;;;;;;5094930;28;20192;-56
2024/01/18 02:58:43;;;;;;;0.50;0.50;;;8.50;99.90;;;;;;5095167;28;20164;-58
2024/01/18 03:01:09;;;;;;;0.70;0.70;;;8.60;99.90;;;;;;5094785;28;20248;-55
2024/01/18 03:03:37;;;;;;;1.43;1.13;;;8.70;99.90;;;;;;5094813;28;20249;-57
2024/01/18 03:06:03;;;;;;;0.77;0.77;;;8.60;99.90;;;;;;5095007;28;20622;-58
2024/01/18 03:08:29;;;;;;;0.63;0.63;;;8.50;99.90;;;;;;5094758;28;20188;-57
2024/01/18 03:10:55;;;;;;;1.03;0.90;;;8.30;99.90;;;;;;5094480;28;20850;-57
2024/01/18 03:13:20;;;;;;;1.07;0.90;;;8.30;99.90;;;;;;5094123;28;20224;-55
2024/01/18 03:15:46;;;;;;;2.00;1.00;;;8.30;99.90;;;;;;5094416;28;20180;-56
2024/01/18 03:18:12;;;;;;;1.60;0.85;;;8.30;99.90;;;;;;5094694;28;20529;-57
2024/01/18 03:20:38;;;;;;;0.80;0.80;;;8.30;99.90;;;;;;5094311;28;20225;-54
2024/01/18 03:23:04;;;;;;;0.60;0.60;;;8.20;99.90;;;;;;5094107;28;20216;-57
2024/01/18 03:25:29;;;;;;;2.30;1.10;;;8.20;99.90;;;;;;5094309;28;20191;-57
2024/01/18 03:27:55;;;;;;;0.87;0.87;;;8.20;99.90;;;;;;5094115;28;20405;-55
2024/01/18 03:30:20;;;;;;;0.97;0.83;;;8.40;99.90;;;;;;5093985;28;20208;-57
2024/01/18 03:32:47;;;;;;;1.50;1.40;;;8.30;99.90;;;;;;5093639;28;20219;-57
2024/01/18 03:35:12;;;;;;;0.90;0.70;;;8.20;99.90;;;;;;5094190;28;20196;-58
2024/01/18 03:37:38;;;;;;;0.80;0.80;;;8.00;99.90;;;;;;5092983;28;20740;-57
2024/01/18 03:40:05;;;;;;;0.70;0.70;;;8.10;99.90;;;;;;5093948;28;20192;-56
2024/01/18 03:42:31;;;;;;;0.70;0.70;;;8.20;99.90;;;;;;5093418;28;20184;-57
2024/01/18 03:44:56;;;;;;;1.37;0.83;;;8.20;99.90;;;;;;5093739;28;20238;-57
2024/01/18 03:47:22;;;;;;;0.80;0.80;;;8.30;99.90;;;;;;5093915;28;20496;-57
2024/01/18 03:49:48;;;;;;;1.63;1.00;;;8.30;99.90;;;;;;5093821;28;20169;-57
2024/01/18 03:52:13;;;;;;;0.83;0.60;;;8.40;99.90;;;;;;5093477;28;20165;-57
2024/01/18 03:54:39;;;;;;;1.10;1.00;;;8.30;99.90;;;;;;5093568;28;20729;-57
2024/01/18 03:57:05;;;;;;;0.67;0.67;;;8.20;99.90;;;;;;5092111;28;20612;-57
2024/01/18 03:59:31;;;;;;;0.60;0.53;;;8.20;99.90;;;;;;5093531;28;20410;-57
2024/01/18 04:01:56;;;;;;;0.60;0.60;;;8.30;99.90;;;;;;5093321;28;20407;-56
2024/01/18 04:04:23;;;;;;;1.00;1.00;;;8.30;99.90;;;;;;5093505;28;20193;-55
2024/01/18 04:06:49;;;;;;;0.63;0.63;;;8.20;99.90;;;;;;5093483;28;20228;-56
2024/01/18 04:09:15;;;;;;;1.25;1.00;;;8.10;99.90;;;;;;5093266;28;20238;-57
2024/01/18 04:11:41;;;;;;;0.40;0.40;;;8.10;99.90;;;;;;5092959;28;20176;-56
2024/01/18 04:14:07;;;;;;;1.13;0.63;;;8.10;99.90;;;;;;5093330;28;20275;-54
2024/01/18 04:16:33;;;;;;;0.60;0.50;;;7.90;99.90;;;;;;5093210;28;20292;-57
2024/01/18 04:18:59;;;;;;;0.50;0.50;;;7.90;99.90;;;;;;5093166;28;20169;-57
2024/01/18 04:21:24;;;;;;;0.40;0.40;;;8.00;99.90;;;;;;5092810;28;20180;-58
2024/01/18 04:23:50;;;;;;;0.53;0.53;;;8.00;99.90;;;;;;5093044;28;20674;-57
2024/01/18 04:26:16;;;;;;;0.50;0.50;;;8.10;99.90;;;;;;5092976;28;20230;-57
2024/01/18 04:28:42;;;;;;;0.65;0.65;;;8.00;99.90;;;;;;5093195;28;20432;-57
2024/01/18 04:31:08;;;;;;;0.50;0.50;;;8.00;99.90;;;;;;5092926;28;20198;-56
2024/01/18 04:33:33;;;;;;;0.50;0.50;;;8.00;99.90;;;;;;5092654;28;20185;-57
2024/01/18 04:35:59;;;;;;;0.60;0.60;;;8.10;99.90;;;;;;5092784;28;20173;-57
2024/01/18 04:38:25;;;;;;;0.40;0.40;;;8.10;99.90;;;;;;5092815;28;20177;-55
2024/01/18 04:40:50;;;;;;;0.93;0.67;;;8.10;99.90;;;;;;5092543;28;20161;-57
2024/01/18 04:43:16;;;;;;;0.70;0.70;;;8.20;99.90;;;;;;5092682;28;20204;-56
2024/01/18 04:45:42;;;;;;;0.40;0.40;;;8.10;99.90;;;;;;5092651;28;20161;-58
2024/01/18 04:48:09;;;;;;;0.60;0.47;;;8.20;99.90;;;;;;5092520;28;20495;-58
2024/01/18 04:50:34;;;;;;;0.40;0.40;;;8.30;99.90;;;;;;5092444;28;20247;-57
2024/01/18 04:53:00;;;;;;;0.40;0.40;;;8.30;99.90;;;;;;5092318;28;20216;-57
2024/01/18 04:55:26;;;;;;;0.50;0.50;;;8.30;99.90;;;;;;5092356;28;20173;-55
2024/01/18 04:57:52;;;;;;;0.73;0.63;;;8.30;99.90;;;;;;5092362;28;20697;-57
2024/01/18 05:00:18;;;;;;;0.50;0.50;;;8.20;99.90;;;;;;5092281;28;20165;-58
2024/01/18 05:02:44;;;;;;;0.50;0.50;;;8.10;99.90;;;;;;5092242;28;20670;-55
2024/01/18 05:05:10;;;;;;;1.53;0.50;;;8.10;99.90;;;;;;5092358;28;20444;-55
2024/01/18 05:07:43;;;;;;;0.50;0.40;;;8.20;99.90;;;;;;5092207;28;20184;-57
2024/01/18 05:10:10;;;;;;;0.50;0.50;;;8.20;99.90;;;;;;5092149;28;20180;-57
2024/01/18 05:12:36;;;;;;;2.45;0.68;;;8.20;99.90;;;;;;5092021;28;20187;-57
2024/01/18 05:15:03;;;;;;;0.40;0.40;;;8.20;99.90;;;;;;5092139;28;20266;-57
2024/01/18 05:17:35;;;;;;;0.70;0.70;;;8.20;99.90;;;;;;5092046;28;20283;-54
2024/01/18 05:20:10;;;;;;;24.98;4.78;;;8.20;99.90;;;;;;5092037;28;20661;-57
2024/01/18 05:22:36;;;;;;;70.07;9.98;;;8.20;99.90;;;;;;5091655;28;20634;-56
2024/01/18 05:25:02;;;;;;;0.93;0.60;;;8.20;99.90;;;;;;5092202;28;20218;-56
2024/01/18 05:27:29;;;;;;;0.40;0.40;;;8.10;99.90;;;;;;5091976;28;20402;-54
2024/01/18 05:29:59;;;;;;;0.52;0.52;;;8.00;99.90;;;;;;5091803;28;20184;-55
2024/01/18 05:32:25;;;;;;;0.50;0.50;;;7.80;99.90;;;;;;5091551;28;20218;-57
2024/01/18 05:34:51;;;;;;;0.40;0.40;;;7.80;99.90;;;;;;5092247;28;20176;-57
2024/01/18 05:37:18;;;;;;;0.50;0.50;;;7.80;99.90;;;;;;5091646;28;20196;-57
2024/01/18 05:39:44;;;;;;;0.68;0.50;;;7.70;99.90;;;;;;5092115;28;20267;-57
2024/01/18 05:42:10;;;;;;;0.57;0.50;;;7.70;99.90;;;;;;5091586;28;20180;-57
2024/01/18 05:44:35;;;;;;;0.40;0.40;;;7.70;99.90;;;;;;5096881;22;20228;-63
2024/01/18 05:47:02;;;;;;;0.40;0.40;;;7.70;99.90;;;;;;5071625;28;20411;-63
2024/01/18 05:49:27;;;;;;;0.40;0.40;;;7.70;99.90;;;;;;5070431;28;20170;-63
2024/01/18 05:51:53;;;;;;;0.47;0.47;;;7.60;99.90;;;;;;5071431;28;20231;-63
2024/01/18 05:54:19;;;;;;;0.60;0.60;;;7.70;99.90;;;;;;5071419;28;20564;-63
2024/01/18 05:56:48;;;;;;;0.47;0.47;;;7.50;99.90;;;;;;5075461;28;20200;-62
2024/01/18 05:59:13;;;;;;;9.07;1.05;;;7.40;99.90;;;;;;5091593;28;20515;-63
2024/01/18 06:01:40;;;;;;;0.53;0.53;;;7.50;99.90;;;;;;5091356;28;20171;-63
2024/01/18 06:04:06;;;;;;;0.40;0.40;;;7.60;99.90;;;;;;5091017;28;20619;-62
2024/01/18 06:06:32;;;;;;;0.70;0.70;;;7.70;99.90;;;;;;5091579;28;20221;-63
2024/01/18 06:08:58;;;;;;;0.60;0.60;;;7.70;99.90;;;;;;5091068;28;20176;-62
2024/01/18 06:11:24;;;;;;;0.57;0.57;;;7.70;99.90;;;;;;5036604;28;20169;-63
2024/01/18 06:13:50;;;;;;;0.50;0.50;;;7.70;99.90;;;;;;5071321;28;20435;-62
2024/01/18 06:16:15;;;;;;;0.40;0.40;;;7.60;99.90;;;;;;5071223;28;20439;-63
2024/01/18 06:18:42;;;;;;;0.40;0.40;;;7.70;99.90;;;;;;5071159;28;20917;-63
2024/01/18 06:21:09;;;;;;;0.70;0.40;;;7.60;99.90;;;;;;5052990;28;20172;-62
2024/01/18 06:23:35;;;;;;;0.50;0.50;;;7.60;99.90;;;;;;5071110;28;20567;-62
2024/01/18 06:26:01;;;;;;;0.70;0.70;;;7.60;99.90;;;;;;5071177;28;20177;-63
2024/01/18 06:28:26;;;;;;;0.50;0.50;;;7.60;99.90;;;;;;5071178;28;20181;-62
2024/01/18 06:30:53;;;;;;;0.53;0.50;;;7.60;99.90;;;;;;5070702;28;20406;-63
2024/01/18 06:33:18;;;;;;;0.60;0.60;;;7.60;99.90;;;;;;5070533;28;20239;-63
2024/01/18 06:35:44;;;;;;;0.50;0.50;;;7.70;99.90;;;;;;5070106;28;20200;-62
2024/01/18 06:38:10;;;;;;;0.50;0.50;;;7.70;99.90;;;;;;5070966;28;20908;-62
2024/01/18 06:40:35;;;;;;;0.50;0.50;;;7.60;99.90;;;;;;5070966;28;20222;-63
2024/01/18 06:43:01;;;;;;;0.60;0.60;;;7.50;99.90;;;;;;5070699;28;20204;-63
2024/01/18 06:45:26;;;;;;;0.40;0.40;;;7.60;99.90;;;;;;5071079;28;20548;-63
2024/01/18 06:47:52;;;;;;;0.63;0.63;;;7.70;99.90;;;;;;5072161;28;20174;-63
2024/01/18 06:50:18;;;;;;;0.57;0.57;;;7.70;99.90;;;;;;5070759;28;20166;-63
2024/01/18 06:52:43;;;;;;;0.40;0.40;;;7.80;99.90;;;;;;5070578;28;20180;-63
2024/01/18 06:55:09;;;;;;;0.60;0.60;;;7.80;99.90;;;;;;5069320;28;20173;-63
2024/01/18 06:57:35;;;;;;;0.50;0.50;;;7.70;99.90;;;;;;5070698;28;20355;-63
2024/01/18 07:00:00;;;;;;;0.53;0.53;;;7.60;99.90;;;;;;5070788;28;20174;-62
2024/01/18 07:02:26;;;;;;;0.60;0.60;;;7.50;99.90;;;;;;5070581;28;20177;-63
2024/01/18 07:04:52;;;;;;;0.90;0.87;;;7.70;99.90;;;;;;5070975;28;20193;-63
2024/01/18 07:07:17;;;;;;;0.50;0.50;;;7.80;99.90;;;;;;5070861;28;20169;-62
2024/01/18 07:09:43;;;;;;;0.40;0.40;;;7.70;99.90;;;;;;5067195;28;20278;-63
2024/01/18 07:12:10;;;;;;;0.67;0.60;;;7.70;99.90;;;;;;5071722;28;20170;-63
2024/01/18 07:14:35;;;;;;;1.42;1.33;;;7.60;99.90;;;;;;5074284;28;20193;-63
2024/01/18 07:17:01;;;;;;;1.17;1.17;;;7.60;99.90;;;;;;5074116;28;20201;-64
2024/01/18 07:19:27;;;;;;;0.90;0.90;;;7.60;99.90;;;;;;5074105;28;20176;-63
2024/01/18 07:21:53;;;;;;;0.90;0.90;;;7.70;99.90;;;;;;5073844;28;20468;-63
2024/01/18 07:24:22;;;;;;;3.23;0.77;;;7.60;99.90;;;;;;5074259;28;20275;-62
2024/01/18 07:26:48;;;;;;;0.57;0.57;;;7.60;99.90;;;;;;5074006;28;20659;-63
2024/01/18 07:29:14;;;;;;;0.60;0.60;;;7.80;99.90;;;;;;5073912;28;20189;-63
2024/01/18 07:31:39;;;;;;;0.80;0.80;;;7.80;99.90;;;;;;5073774;28;20175;-62
2024/01/18 07:34:05;;;;;;;0.87;0.87;;;7.80;99.90;;;;;;5073873;28;20770;-63
2024/01/18 07:36:31;;;;;;;0.77;0.77;;;7.70;99.90;;;;;;5055815;28;20200;-63
2024/01/18 07:38:57;;;;;;;0.90;0.90;;;7.70;99.90;;;;;;5073601;28;20176;-63
2024/01/18 07:41:22;;;;;;;0.60;0.60;;;7.80;99.90;;;;;;5073426;28;20176;-64
2024/01/18 07:43:48;;;;;;;0.70;0.67;;;7.90;99.90;;;;;;5073466;28;20206;-63
2024/01/18 07:46:14;;;;;;;0.67;0.67;;;7.80;99.90;;;;;;5073554;28;20719;-63
2024/01/18 07:48:39;;;;;;;0.70;0.70;;;7.80;99.90;;;;;;5073566;28;20255;-63
2024/01/18 07:51:05;;;;;;;0.60;0.60;;;7.80;99.90;;;;;;5073463;28;20200;-63
2024/01/18 07:53:31;;;;;;;1.07;0.60;;;7.80;99.90;;;;;;5073422;28;20185;-63
2024/01/18 07:55:56;;;;;;;0.40;0.40;;;8.00;99.90;;;;;;5073197;28;20170;-63
2024/01/18 07:58:22;;;;;;;0.70;0.70;;;7.90;99.90;;;;;;5072994;28;20235;-63
2024/01/18 08:00:48;;;;;;;0.70;0.50;;;7.80;99.90;;;;;;5070861;28;20169;-63
2024/01/18 08:03:13;;;;;;;1.05;0.60;;;7.80;99.90;;;;;;5073294;28;20275;-62
2024/01/18 08:05:39;;;;;;;0.40;0.40;;;7.90;99.90;;;;;;5073302;28;20610;-63
2024/01/18 08:08:05;;;;;;;0.47;0.47;;;8.00;99.90;;;;;;5073320;28;20636;-63
2024/01/18 08:10:30;;;;;;;0.40;0.40;;;8.00;99.90;;;;;;5073844;28;20271;-63
2024/01/18 08:12:56;;;;;;;0.70;0.70;;;7.90;99.90;;;;;;5072982;28;20415;-63
2024/01/18 08:15:22;;;;;;;0.50;0.50;;;7.80;99.90;;;;;;5073046;28;20593;-63
2024/01/18 08:17:47;;;;;;;0.50;0.50;;;7.80;99.90;;;;;;5072951;28;20226;-63
2024/01/18 08:20:13;;;;;;;0.50;0.50;;;7.90;99.90;;;;;;5072340;28;20165;-63
2024/01/18 08:22:42;;;;;;;0.60;0.50;;;7.90;99.90;;;;;;5072497;28;20177;-63
2024/01/18 08:25:12;;;;;;;0.70;0.70;;;7.80;99.90;;;;;;5073035;28;20169;-63
2024/01/18 08:27:41;;;;;;;0.50;0.50;;;7.80;99.90;;;;;;5072719;28;20177;-63
2024/01/18 08:30:08;;;;;;;0.85;0.85;;;7.90;99.90;;;;;;5073154;28;20181;-63
2024/01/18 08:32:34;;;;;;;0.68;0.52;;;8.10;99.90;;;;;;5072827;28;20264;-63
2024/01/18 08:35:06;;;;;;;0.40;0.40;;;8.30;99.90;;;;;;5072704;28;20205;-63
2024/01/18 08:37:33;;;;;;;0.50;0.50;;;8.40;99.90;;;;;;5072782;28;20228;-63
2024/01/18 08:39:59;;;;;;;0.50;0.50;;;8.40;99.90;;;;;;5072620;28;20256;-63
2024/01/18 08:42:25;;;;;;;0.50;0.50;;;8.40;99.90;;;;;;5072306;28;20180;-63
2024/01/18 08:44:50;;;;;;;0.63;0.63;;;8.50;99.90;;;;;;5072604;28;20217;-63
2024/01/18 08:47:16;;;;;;;0.40;0.40;;;8.50;99.90;;;;;;5072509;28;20181;-63
2024/01/18 08:49:42;;;;;;;0.40;0.40;;;8.40;99.90;;;;;;5072467;28;20214;-63
2024/01/18 08:52:07;;;;;;;0.40;0.40;;;8.40;99.90;;;;;;5072162;28;20173;-63
2024/01/18 08:54:33;;;;;;;0.40;0.40;;;8.40;99.90;;;;;;5072367;28;20189;-63
2024/01/18 08:56:59;;;;;;;0.47;0.47;;;8.20;99.90;;;;;;5072186;28;20192;-62
2024/01/18 08:59:24;;;;;;;0.40;0.40;;;8.30;99.90;;;;;;5072359;28;20187;-62
2024/01/18 09:01:50;;;;;;;0.50;0.50;;;8.20;99.90;;;;;;5072028;28;20169;-63
2024/01/18 09:04:16;;;;;;;2.57;0.40;;;8.30;99.90;;;;;;5072248;28;20192;-63
2024/01/18 09:06:43;;;;;;;0.40;0.40;;;8.40;99.90;;;;;;5072060;28;20919;-63
2024/01/18 09:09:11;;;;;;;0.40;0.40;;;8.50;99.90;;;;;;5072137;28;20199;-63
2024/01/18 09:11:38;;;;;;;0.70;0.70;;;8.40;99.90;;;;;;5071771;28;20612;-63
2024/01/18 09:14:03;;;;;;;0.40;0.40;;;8.50;99.90;;;;;;5072012;28;20201;-63
2024/01/18 09:16:31;;;;;;;0.83;0.50;;;8.60;99.90;;;;;;5072077;28;20196;-63
2024/01/18 09:18:57;;;;;;;0.40;0.40;;;8.60;99.90;;;;;;5072064;28;20185;-63
2024/01/18 09:21:23;;;;;;;1.15;0.52;;;8.70;99.90;;;;;;5071634;28;20279;-63
2024/01/18 09:23:48;;;;;;;0.50;0.50;;;8.80;99.90;;;;;;5071783;28;20276;-63
2024/01/18 09:26:14;;;;;;;0.43;0.43;;;8.80;99.90;;;;;;5071841;28;20211;-63
2024/01/18 09:28:40;;;;;;;0.50;0.50;;;8.80;99.90;;;;;;5071843;28;20174;-63
2024/01/18 09:31:06;;;;;;;0.30;0.30;;;8.60;99.90;;;;;;5072766;28;20639;-63
2024/01/18 09:33:31;;;;;;;0.40;0.40;;;8.50;99.90;;;;;;5071760;28;20239;-63
2024/01/18 09:35:57;;;;;;;0.50;0.50;;;8.40;99.90;;;;;;5070997;28;20263;-63
2024/01/18 09:38:23;;;;;;;0.50;0.50;;;8.40;99.90;;;;;;5071560;28;20752;-63
2024/01/18 09:40:48;;;;;;;0.47;0.47;;;8.60;99.90;;;;;;5071491;28;20249;-64
2024/01/18 09:43:15;;;;;;;0.67;0.67;;;8.50;99.90;;;;;;5071335;28;20207;-63
2024/01/18 09:45:46;;;;;;;0.50;0.50;;;8.50;99.90;;;;;;5071603;28;20165;-63
2024/01/18 09:48:13;;;;;;;0.50;0.45;;;8.60;99.90;;;;;;5071614;28;20178;-64
2024/01/18 09:50:45;;;;;;;0.40;0.40;;;8.60;99.90;;;;;;5071759;28;20699;-63
2024/01/18 09:53:14;;;;;;;0.40;0.40;;;8.50;99.90;;;;;;5053235;28;20308;-63
2024/01/18 09:55:40;;;;;;;0.60;0.50;;;8.50;99.90;;;;;;5071461;28;20193;-63
2024/01/18 09:58:12;;;;;;;0.70;0.50;;;8.50;99.90;;;;;;5071471;28;20220;-63
2024/01/18 10:00:44;;;;;;;0.50;0.50;;;8.50;99.90;;;;;;5071313;28;20400;-63
2024/01/18 10:03:10;;;;;;;0.52;0.40;;;8.60;99.90;;;;;;5071218;28;20570;-63
2024/01/18 10:05:36;;;;;;;1.67;1.10;;;8.50;99.90;;;;;;5071299;28;20222;-63
2024/01/18 10:08:03;;;;;;;0.70;0.60;;;8.50;99.90;;;;;;5071477;28;20408;-63
2024/01/18 10:10:29;;;;;;;0.50;0.50;;;8.60;99.90;;;;;;5071389;28;20174;-63
2024/01/18 10:12:55;;;;;;;0.80;0.40;;;8.60;99.90;;;;;;5071201;28;20211;-63
2024/01/18 10:15:32;;;;;;;0.40;0.40;;;8.50;99.90;;;;;;5071296;28;20540;-63
2024/01/18 10:17:59;;;;;;;0.40;0.40;;;8.60;99.90;;;;;;5071234;28;20213;-63
2024/01/18 10:20:25;;;;;;;0.40;0.40;;;8.70;99.90;;;;;;5071082;28;20169;-63
2024/01/18 10:22:51;;;;;;;0.47;0.47;;;8.70;99.90;;;;;;5071113;28;20215;-63
2024/01/18 10:25:16;;;;;;;0.43;0.43;;;8.60;99.90;;;;;;5071252;28;20415;-63
2024/01/18 10:27:42;;;;;;;0.40;0.40;;;8.60;99.90;;;;;;5071263;28;20181;-63
2024/01/18 10:30:14;;;;;;;0.40;0.40;;;8.50;99.90;;;;;;5071186;28;20165;-63
2024/01/18 10:32:41;;;;;;;0.57;0.40;;;8.50;99.90;;;;;;5070874;28;20177;-63
2024/01/18 10:35:24;;;;;;;0.30;0.30;;;8.60;99.90;;;;;;5071376;28;20200;-63
2024/01/18 10:37:59;;;;;;;0.60;0.60;;;8.70;99.90;;;;;;5071178;28;20561;-63
2024/01/18 10:40:25;;;;;;;0.50;0.50;;;8.70;99.90;;;;;;5070930;28;20185;-63
2024/01/18 10:42:50;;;;;;;0.60;0.60;;;8.70;99.90;;;;;;5070724;28;20166;-63
2024/01/18 10:45:16;;;;;;;1.10;0.83;;;8.80;99.90;;;;;;5071050;28;20184;-63
2024/01/18 10:47:43;;;;;;;1.33;0.83;;;8.90;99.90;;;;;;5075016;28;20177;-63
2024/01/18 10:50:10;;;;;;;1.17;0.70;;;8.90;99.90;;;;;;5074752;28;20498;-63
2024/01/18 10:52:37;;;;;;;0.40;0.40;;;9.00;99.90;;;;;;5075139;28;20185;-63
2024/01/18 10:55:08;;;;;;;0.50;0.50;;;9.00;99.90;;;;;;5075558;28;20193;-63
2024/01/18 10:57:34;;;;;;;0.40;0.40;;;9.00;99.90;;;;;;5074714;28;20221;-63
2024/01/18 10:59:59;;;;;;;0.40;0.40;;;9.10;99.90;;;;;;5074476;28;20252;-63
2024/01/18 11:02:25;;;;;;;0.40;0.40;;;9.00;99.90;;;;;;5074386;28;20745;-63
2024/01/18 11:04:52;;;;;;;0.53;0.53;;;9.10;99.90;;;;;;5074620;28;20220;-63
2024/01/18 11:07:19;;;;;;;0.60;0.60;;;9.20;99.90;;;;;;5074546;28;20415;-63
2024/01/18 11:09:45;;;;;;;0.40;0.40;;;9.20;99.90;;;;;;5074410;28;20192;-63
2024/01/18 11:12:13;;;;;;;0.88;0.60;;;9.00;99.90;;;;;;5074015;28;20181;-63
2024/01/18 11:14:40;;;;;;;0.50;0.50;;;9.20;99.90;;;;;;5074228;28;20233;-63
2024/01/18 11:17:21;;;;;;;1.50;0.95;;;9.20;99.90;;;;;;5074412;28;20212;-63
2024/01/18 11:19:47;;;;;;;0.75;0.70;;;9.30;99.90;;;;;;5074265;28;20573;-63
2024/01/18 11:22:24;;;;;;;0.70;0.70;;;9.30;99.90;;;;;;5073990;28;20169;-63
2024/01/18 11:24:50;;;;;;;1.00;0.98;;;9.30;99.90;;;;;;5074097;28;20295;-63
2024/01/18 11:27:25;;;;;;;0.40;0.40;;;9.20;99.90;;;;;;5074107;28;20255;-63
2024/01/18 11:29:51;;;;;;;0.82;0.82;;;9.00;99.90;;;;;;5074263;28;20319;-63
2024/01/18 11:32:20;;;;;;;4.00;3.57;;;8.90;99.90;;;;;;5073811;28;20256;-63
2024/01/18 11:34:49;;;;;;;1.40;1.30;;;8.90;99.90;;;;;;5073972;28;20984;-63
2024/01/18 11:37:24;;;;;;;0.55;0.55;;;8.90;99.90;;;;;;5073846;28;20751;-63
2024/01/18 11:39:50;;;;;;;0.50;0.50;;;8.90;99.90;;;;;;5073973;28;20176;-63
2024/01/18 11:42:27;;;;;;;1.05;0.60;;;9.00;99.90;;;;;;5073739;28;20181;-63
2024/01/18 11:45:05;;;;;;;0.45;0.45;;;9.10;99.90;;;;;;5073780;28;20208;-63
2024/01/18 11:47:32;;;;;;;0.77;0.77;;;9.10;99.90;;;;;;5073710;28;20196;-63
2024/01/18 11:50:01;;;;;;;0.80;0.80;;;9.20;99.90;;;;;;5073657;28;20173;-63
2024/01/18 11:52:29;;;;;;;1.58;1.25;;;9.40;99.90;;;;;;5073459;28;20236;-63
2024/01/18 11:54:56;;;;;;;0.50;0.50;;;9.30;99.90;;;;;;5073506;28;20781;-63
2024/01/18 11:57:23;;;;;;;1.20;1.10;;;9.30;99.90;;;;;;5072743;28;20224;-63
2024/01/18 11:59:49;;;;;;;0.60;0.60;;;9.20;99.90;;;;;;5073556;28;20170;-63
2024/01/18 12:02:15;;;;;;;3.08;2.88;;;9.30;99.90;;;;;;5073145;28;20174;-63
2024/01/18 12:04:41;;;;;;;0.67;0.67;;;9.40;99.90;;;;;;5073534;28;20705;-63
2024/01/18 12:07:08;;;;;;;1.00;0.68;;;9.50;99.90;;;;;;5073500;28;20414;-63
2024/01/18 12:09:34;;;;;;;1.20;1.10;;;9.50;99.90;;;;;;5073373;28;20464;-63
2024/01/18 12:12:01;;;;;;;0.60;0.60;;;9.50;99.90;;;;;;5072908;28;20173;-63
2024/01/18 12:14:26;;;;;;;0.50;0.50;;;9.40;99.90;;;;;;5073488;28;20572;-63
2024/01/18 12:16:53;;;;;;;3.93;3.53;;;9.40;99.90;;;;;;5073992;28;20194;-63
2024/01/18 12:19:36;;;;;;;0.93;0.93;;;9.50;99.90;;;;;;5073202;28;20544;-62
2024/01/18 12:22:04;;;;;;;0.70;0.70;;;9.60;99.90;;;;;;5073033;28;20178;-63
2024/01/18 12:24:30;;;;;;;0.77;0.52;;;9.60;99.90;;;;;;5072990;28;20190;-63
2024/01/18 12:26:56;;;;;;;1.33;1.23;;;9.50;99.90;;;;;;5072942;28;20173;-63
2024/01/18 12:29:23;;;;;;;2.53;1.20;;;9.50;99.90;;;;;;5072698;28;20222;-62
2024/01/18 12:31:50;;;;;;;0.50;0.50;;;9.60;99.90;;;;;;5072401;28;20415;-62
2024/01/18 12:34:19;;;;;;;0.40;0.40;;;9.70;99.90;;;;;;5072810;28;20679;-63
2024/01/18 12:36:46;;;;;;;0.52;0.50;;;9.70;99.90;;;;;;5072393;28;20258;-63
2024/01/18 12:39:17;;;;;;;0.40;0.40;;;9.60;99.90;;;;;;5073843;28;20170;-63
2024/01/18 12:41:44;;;;;;;0.40;0.40;;;9.70;99.90;;;;;;5074192;28;20165;-63
2024/01/18 12:44:11;;;;;;;0.40;0.40;;;9.80;99.90;;;;;;5074576;28;20200;-63
2024/01/18 12:46:39;;;;;;;0.50;0.40;;;9.80;99.90;;;;;;5092478;28;20169;-64
2024/01/18 12:49:06;;;;;;;0.40;0.40;;;9.70;99.90;;;;;;5092683;28;20200;-63
2024/01/18 12:51:34;;;;;;;0.65;0.55;;;9.80;99.90;;;;;;5074194;28;20173;-63
2024/01/18 12:54:00;;;;;;;0.43;0.43;;;9.80;99.90;;;;;;5092439;28;20192;-62